sensor_id;sensor_type;location;lat;lon;timestamp;pressure;altitude;pressure_sealevel;temperature;humidity
30421;BME280;17218;54.070;10.012;2023-05-02T00:00:16;101245.63;;;11.72;100.00
30421;BME280;17218;54.070;10.012;2023-05-02T00:02:43;101243.84;;;11.77;100.00
30421;BME280;17218;54.070;10.012;2023-05-02T00:05:10;101254.16;;;11.91;100.00
30421;BME280;17218;54.070;10.012;2023-05-02T00:07:36;101239.44;;;11.95;100.00
30421;BME280;17218;54.070;10.012;2023-05-02T00:10:03;101238.59;;;11.96;100.00
30421;BME280;17218;54.070;10.012;2023-05-02T00:12:30;101252.44;;;11.98;100.00
30421;BME280;17218;54.070;10.012;2023-05-02T00:14:57;101242.00;;;12.04;100.00
30421;BME280;17218;54.070;10.012;2023-05-02T00:17:25;101244.59;;;12.04;100.00
30421;BME280;17218;54.070;10.012;2023-05-02T00:19:51;101243.72;;;12.05;100.00
30421;BME280;17218;54.070;10.012;2023-05-02T00:22:18;101251.50;;;12.07;100.00
30421;BME280;17218;54.070;10.012;2023-05-02T00:24:45;101248.06;;;12.12;100.00
30421;BME280;17218;54.070;10.012;2023-05-02T00:27:11;101243.72;;;12.11;100.00
30421;BME280;17218;54.070;10.012;2023-05-02T00:29:38;101247.16;;;12.15;100.00
30421;BME280;17218;54.070;10.012;2023-05-02T00:32:05;101253.22;;;12.19;100.00
30421;BME280;17218;54.070;10.012;2023-05-02T00:34:33;101249.00;;;11.89;100.00
30421;BME280;17218;54.070;10.012;2023-05-02T00:36:59;101250.72;;;11.90;100.00
30421;BME280;17218;54.070;10.012;2023-05-02T00:39:26;101247.22;;;12.01;100.00
30421;BME280;17218;54.070;10.012;2023-05-02T00:41:55;101251.59;;;11.94;100.00
30421;BME280;17218;54.070;10.012;2023-05-02T00:44:22;101249.00;;;11.92;100.00
30421;BME280;17218;54.070;10.012;2023-05-02T00:46:49;101261.09;;;11.93;100.00
30421;BME280;17218;54.070;10.012;2023-05-02T00:49:16;101261.09;;;11.92;100.00
30421;BME280;17218;54.070;10.012;2023-05-02T00:51:44;101262.84;;;11.88;100.00
30421;BME280;17218;54.070;10.012;2023-05-02T00:54:11;101268.13;;;11.69;100.00
30421;BME280;17218;54.070;10.012;2023-05-02T00:56:38;101265.53;;;11.68;100.00
30421;BME280;17218;54.070;10.012;2023-05-02T00:59:04;101266.34;;;11.76;100.00
30421;BME280;17218;54.070;10.012;2023-05-02T01:01:41;101268.13;;;11.63;100.00
30421;BME280;17218;54.070;10.012;2023-05-02T01:04:21;101264.69;;;11.50;100.00
30421;BME280;17218;54.070;10.012;2023-05-02T01:07:04;101269.88;;;11.55;100.00
30421;BME280;17218;54.070;10.012;2023-05-02T01:09:43;101267.25;;;11.60;100.00
30421;BME280;17218;54.070;10.012;2023-05-02T01:12:19;101268.16;;;11.52;100.00
30421;BME280;17218;54.070;10.012;2023-05-02T01:14:53;101269.91;;;11.45;100.00
30421;BME280;17218;54.070;10.012;2023-05-02T01:17:24;101275.97;;;11.44;100.00
30421;BME280;17218;54.070;10.012;2023-05-02T01:19:55;101276.81;;;11.57;100.00
30421;BME280;17218;54.070;10.012;2023-05-02T01:22:25;101278.47;;;11.74;100.00
30421;BME280;17218;54.070;10.012;2023-05-02T01:24:58;101277.63;;;11.74;100.00
30421;BME280;17218;54.070;10.012;2023-05-02T01:27:30;101276.75;;;11.75;100.00
30421;BME280;17218;54.070;10.012;2023-05-02T01:30:02;101279.34;;;11.72;100.00
30421;BME280;17218;54.070;10.012;2023-05-02T01:32:32;101275.06;;;11.64;100.00
30421;BME280;17218;54.070;10.012;2023-05-02T01:35:00;101283.69;;;11.69;100.00
30421;BME280;17218;54.070;10.012;2023-05-02T01:37:29;101294.09;;;11.59;100.00
30421;BME280;17218;54.070;10.012;2023-05-02T01:39:57;101296.69;;;11.54;100.00
30421;BME280;17218;54.070;10.012;2023-05-02T01:42:24;101304.50;;;11.41;100.00
30421;BME280;17218;54.070;10.012;2023-05-02T01:44:53;101302.78;;;11.34;100.00
30421;BME280;17218;54.070;10.012;2023-05-02T01:47:23;101314.03;;;11.25;100.00
30421;BME280;17218;54.070;10.012;2023-05-02T01:49:50;101315.78;;;11.12;100.00
30421;BME280;17218;54.070;10.012;2023-05-02T01:52:20;101327.88;;;11.01;100.00
30421;BME280;17218;54.070;10.012;2023-05-02T01:54:47;101327.00;;;10.80;100.00
30421;BME280;17218;54.070;10.012;2023-05-02T01:57:16;101342.56;;;10.80;100.00
30421;BME280;17218;54.070;10.012;2023-05-02T01:59:44;101349.44;;;10.74;100.00
30421;BME280;17218;54.070;10.012;2023-05-02T02:02:13;101345.09;;;10.64;100.00
30421;BME280;17218;54.070;10.012;2023-05-02T02:04:42;101358.03;;;10.50;100.00
30421;BME280;17218;54.070;10.012;2023-05-02T02:07:12;101360.56;;;10.39;100.00
30421;BME280;17218;54.070;10.012;2023-05-02T02:09:39;101375.16;;;10.15;100.00
30421;BME280;17218;54.070;10.012;2023-05-02T02:12:11;101373.38;;;10.11;100.00
30421;BME280;17218;54.070;10.012;2023-05-02T02:14:42;101379.41;;;10.07;100.00
30421;BME280;17218;54.070;10.012;2023-05-02T02:17:15;101373.38;;;10.08;100.00
30421;BME280;17218;54.070;10.012;2023-05-02T02:19:49;101379.41;;;10.08;100.00
30421;BME280;17218;54.070;10.012;2023-05-02T02:22:19;101378.47;;;9.97;100.00
30421;BME280;17218;54.070;10.012;2023-05-02T02:24:46;101395.63;;;9.81;100.00
30421;BME280;17218;54.070;10.012;2023-05-02T02:27:13;101398.97;;;9.65;100.00
30421;BME280;17218;54.070;10.012;2023-05-02T02:29:40;101405.81;;;9.56;100.00
30421;BME280;17218;54.070;10.012;2023-05-02T02:32:06;101407.53;;;9.52;100.00
30421;BME280;17218;54.070;10.012;2023-05-02T02:34:33;101410.13;;;9.53;100.00
30421;BME280;17218;54.070;10.012;2023-05-02T02:37:04;101408.28;;;9.38;100.00
30421;BME280;17218;54.070;10.012;2023-05-02T02:39:39;101418.53;;;9.27;100.00
30421;BME280;17218;54.070;10.012;2023-05-02T02:42:11;101421.91;;;9.22;100.00
30421;BME280;17218;54.070;10.012;2023-05-02T02:44:46;101434.81;;;9.20;100.00
30421;BME280;17218;54.070;10.012;2023-05-02T02:47:22;101433.91;;;9.15;100.00
30421;BME280;17218;54.070;10.012;2023-05-02T02:49:54;101439.78;;;9.00;100.00
30421;BME280;17218;54.070;10.012;2023-05-02T02:52:31;101445.78;;;8.97;100.00
30421;BME280;17218;54.070;10.012;2023-05-02T02:55:06;101449.31;;;9.02;100.00
30421;BME280;17218;54.070;10.012;2023-05-02T02:57:40;101443.25;;;9.00;100.00
30421;BME280;17218;54.070;10.012;2023-05-02T03:00:14;101461.25;;;8.94;100.00
30421;BME280;17218;54.070;10.012;2023-05-02T03:02:42;101461.22;;;8.89;100.00
30421;BME280;17218;54.070;10.012;2023-05-02T03:05:10;101454.34;;;8.91;100.00
30421;BME280;17218;54.070;10.012;2023-05-02T03:07:38;101464.59;;;8.82;100.00
30421;BME280;17218;54.070;10.012;2023-05-02T03:10:05;101466.09;;;8.64;100.00
30421;BME280;17218;54.070;10.012;2023-05-02T03:12:32;101479.84;;;8.63;100.00
30421;BME280;17218;54.070;10.012;2023-05-02T03:15:22;101481.41;;;8.53;100.00
30421;BME280;17218;54.070;10.012;2023-05-02T03:17:50;101471.09;;;8.55;100.00
30421;BME280;17218;54.070;10.012;2023-05-02T03:20:17;101477.19;;;8.57;100.00
30421;BME280;17218;54.070;10.012;2023-05-02T03:22:45;101492.50;;;8.46;100.00
30421;BME280;17218;54.070;10.012;2023-05-02T03:25:11;101493.25;;;8.37;100.00
30421;BME280;17218;54.070;10.012;2023-05-02T03:27:38;101502.59;;;8.29;100.00
30421;BME280;17218;54.070;10.012;2023-05-02T03:30:06;101510.13;;;8.13;100.00
30421;BME280;17218;54.070;10.012;2023-05-02T03:32:32;101513.16;;;7.88;100.00
30421;BME280;17218;54.070;10.012;2023-05-02T03:34:59;101522.44;;;7.77;100.00
30421;BME280;17218;54.070;10.012;2023-05-02T03:37:25;101523.16;;;7.68;100.00
30421;BME280;17218;54.070;10.012;2023-05-02T03:39:53;101538.66;;;7.70;100.00
30421;BME280;17218;54.070;10.012;2023-05-02T03:42:20;101536.09;;;7.71;100.00
30421;BME280;17218;54.070;10.012;2023-05-02T03:44:46;101542.06;;;7.69;100.00
30421;BME280;17218;54.070;10.012;2023-05-02T03:47:13;101548.09;;;7.69;100.00
30421;BME280;17218;54.070;10.012;2023-05-02T03:49:39;101545.31;;;7.58;100.00
30421;BME280;17218;54.070;10.012;2023-05-02T03:52:06;101561.63;;;7.57;100.00
30421;BME280;17218;54.070;10.012;2023-05-02T03:54:32;101558.00;;;7.47;100.00
30421;BME280;17218;54.070;10.012;2023-05-02T03:57:00;101560.38;;;7.36;100.00
30421;BME280;17218;54.070;10.012;2023-05-02T03:59:31;101561.97;;;7.30;100.00
30421;BME280;17218;54.070;10.012;2023-05-02T04:01:58;101567.13;;;7.30;100.00
30421;BME280;17218;54.070;10.012;2023-05-02T04:04:24;101577.25;;;7.20;100.00
30421;BME280;17218;54.070;10.012;2023-05-02T04:06:51;101573.56;;;7.07;100.00
30421;BME280;17218;54.070;10.012;2023-05-02T04:09:17;101583.00;;;7.07;100.00
30421;BME280;17218;54.070;10.012;2023-05-02T04:11:49;101592.53;;;7.11;100.00
30421;BME280;17218;54.070;10.012;2023-05-02T04:14:17;101596.81;;;7.10;100.00
30421;BME280;17218;54.070;10.012;2023-05-02T04:16:46;101598.56;;;7.11;100.00
30421;BME280;17218;54.070;10.012;2023-05-02T04:19:13;101600.28;;;7.12;100.00
30421;BME280;17218;54.070;10.012;2023-05-02T04:21:40;101606.50;;;7.22;100.00
30421;BME280;17218;54.070;10.012;2023-05-02T04:24:07;101606.59;;;7.27;100.00
30421;BME280;17218;54.070;10.012;2023-05-02T04:26:34;101603.41;;;7.39;100.00
30421;BME280;17218;54.070;10.012;2023-05-02T04:29:01;101612.97;;;7.45;100.00
30421;BME280;17218;54.070;10.012;2023-05-02T04:31:30;101613.03;;;7.48;100.00
30421;BME280;17218;54.070;10.012;2023-05-02T04:33:56;101616.66;;;7.56;100.00
30421;BME280;17218;54.070;10.012;2023-05-02T04:36:23;101615.13;;;7.69;100.00
30421;BME280;17218;54.070;10.012;2023-05-02T04:38:50;101618.75;;;7.78;100.00
30421;BME280;17218;54.070;10.012;2023-05-02T04:41:16;101620.63;;;7.86;100.00
30421;BME280;17218;54.070;10.012;2023-05-02T04:43:43;101623.22;;;7.88;100.00
30421;BME280;17218;54.070;10.012;2023-05-02T04:46:09;101633.69;;;7.96;100.00
30421;BME280;17218;54.070;10.012;2023-05-02T04:48:37;101637.97;;;7.95;100.00
30421;BME280;17218;54.070;10.012;2023-05-02T04:51:06;101639.59;;;7.90;100.00
30421;BME280;17218;54.070;10.012;2023-05-02T04:53:33;101642.34;;;7.98;100.00
30421;BME280;17218;54.070;10.012;2023-05-02T04:56:00;101647.53;;;8.01;100.00
30421;BME280;17218;54.070;10.012;2023-05-02T04:58:26;101649.38;;;8.08;100.00
30421;BME280;17218;54.070;10.012;2023-05-02T05:00:53;101656.38;;;8.14;100.00
30421;BME280;17218;54.070;10.012;2023-05-02T05:03:19;101660.81;;;8.23;100.00
30421;BME280;17218;54.070;10.012;2023-05-02T05:05:48;101658.22;;;8.23;100.00
30421;BME280;17218;54.070;10.012;2023-05-02T05:08:14;101670.19;;;8.16;100.00
30421;BME280;17218;54.070;10.012;2023-05-02T05:10:41;101677.75;;;8.07;100.00
30421;BME280;17218;54.070;10.012;2023-05-02T05:13:07;101674.41;;;8.13;100.00
30421;BME280;17218;54.070;10.012;2023-05-02T05:15:33;101673.53;;;8.12;100.00
30421;BME280;17218;54.070;10.012;2023-05-02T05:18:00;101688.94;;;8.07;100.00
30421;BME280;17218;54.070;10.012;2023-05-02T05:20:27;101685.78;;;8.22;100.00
30421;BME280;17218;54.070;10.012;2023-05-02T05:22:55;101685.06;;;8.31;100.00
30421;BME280;17218;54.070;10.012;2023-05-02T05:25:21;101681.72;;;8.37;100.00
30421;BME280;17218;54.070;10.012;2023-05-02T05:27:48;101687.78;;;8.38;100.00
30421;BME280;17218;54.070;10.012;2023-05-02T05:30:16;101680.88;;;8.38;100.00
30421;BME280;17218;54.070;10.012;2023-05-02T05:32:42;101688.69;;;8.41;100.00
30421;BME280;17218;54.070;10.012;2023-05-02T05:35:09;101692.13;;;8.43;100.00
30421;BME280;17218;54.070;10.012;2023-05-02T05:37:36;101698.19;;;8.44;100.00
30421;BME280;17218;54.070;10.012;2023-05-02T05:40:06;101699.13;;;8.49;100.00
30421;BME280;17218;54.070;10.012;2023-05-02T05:42:33;101704.25;;;8.47;100.00
30421;BME280;17218;54.070;10.012;2023-05-02T05:44:59;101705.97;;;8.47;100.00
30421;BME280;17218;54.070;10.012;2023-05-02T05:47:26;101708.59;;;8.49;100.00
30421;BME280;17218;54.070;10.012;2023-05-02T05:49:53;101712.78;;;8.42;100.00
30421;BME280;17218;54.070;10.012;2023-05-02T05:52:19;101724.88;;;8.44;100.00
30421;BME280;17218;54.070;10.012;2023-05-02T05:54:46;101713.66;;;8.42;100.00
30421;BME280;17218;54.070;10.012;2023-05-02T05:57:14;101721.41;;;8.44;100.00
30421;BME280;17218;54.070;10.012;2023-05-02T05:59:40;101736.19;;;8.51;100.00
30421;BME280;17218;54.070;10.012;2023-05-02T06:02:07;101733.63;;;8.54;100.00
30421;BME280;17218;54.070;10.012;2023-05-02T06:04:33;101730.97;;;8.48;100.00
30421;BME280;17218;54.070;10.012;2023-05-02T06:07:00;101733.38;;;8.37;100.00
30421;BME280;17218;54.070;10.012;2023-05-02T06:09:26;101743.00;;;8.47;100.00
30421;BME280;17218;54.070;10.012;2023-05-02T06:11:52;101739.69;;;8.55;100.00
30421;BME280;17218;54.070;10.012;2023-05-02T06:14:20;101733.78;;;8.61;100.00
30421;BME280;17218;54.070;10.012;2023-05-02T06:16:47;101742.56;;;8.69;100.00
30421;BME280;17218;54.070;10.012;2023-05-02T06:19:13;101744.34;;;8.75;100.00
30421;BME280;17218;54.070;10.012;2023-05-02T06:21:40;101740.19;;;8.85;100.00
30421;BME280;17218;54.070;10.012;2023-05-02T06:24:06;101760.00;;;8.84;100.00
30421;BME280;17218;54.070;10.012;2023-05-02T06:26:33;101762.66;;;8.87;100.00
30421;BME280;17218;54.070;10.012;2023-05-02T06:28:59;101765.13;;;8.82;100.00
30421;BME280;17218;54.070;10.012;2023-05-02T06:31:28;101772.06;;;8.83;100.00
30421;BME280;17218;54.070;10.012;2023-05-02T06:33:54;101767.06;;;8.93;100.00
30421;BME280;17218;54.070;10.012;2023-05-02T06:36:21;101780.13;;;9.02;100.00
30421;BME280;17218;54.070;10.012;2023-05-02T06:38:47;101788.72;;;9.01;100.00
30421;BME280;17218;54.070;10.012;2023-05-02T06:41:14;101794.31;;;8.75;100.00
30421;BME280;17218;54.070;10.012;2023-05-02T06:43:40;101790.97;;;8.82;100.00
30421;BME280;17218;54.070;10.012;2023-05-02T06:46:07;101791.34;;;9.04;100.00
30421;BME280;17218;54.070;10.012;2023-05-02T06:48:35;101795.19;;;9.30;100.00
30421;BME280;17218;54.070;10.012;2023-05-02T06:51:02;101797.94;;;9.41;100.00
30421;BME280;17218;54.070;10.012;2023-05-02T06:53:29;101809.97;;;9.39;100.00
30421;BME280;17218;54.070;10.012;2023-05-02T06:55:55;101808.34;;;9.46;100.00
30421;BME280;17218;54.070;10.012;2023-05-02T06:58:22;101818.78;;;9.52;100.00
30421;BME280;17218;54.070;10.012;2023-05-02T07:00:49;101807.59;;;9.56;100.00
30421;BME280;17218;54.070;10.012;2023-05-02T07:03:15;101820.72;;;9.67;100.00
30421;BME280;17218;54.070;10.012;2023-05-02T07:05:43;101823.41;;;9.76;100.00
30421;BME280;17218;54.070;10.012;2023-05-02T07:08:09;101836.56;;;9.90;100.00
30421;BME280;17218;54.070;10.012;2023-05-02T07:10:36;101828.94;;;10.03;100.00
30421;BME280;17218;54.070;10.012;2023-05-02T07:13:02;101830.59;;;9.98;100.00
30421;BME280;17218;54.070;10.012;2023-05-02T07:15:29;101834.06;;;9.98;100.00
30421;BME280;17218;54.070;10.012;2023-05-02T07:17:55;101841.88;;;10.03;100.00
30421;BME280;17218;54.070;10.012;2023-05-02T07:20:21;101841.22;;;10.18;100.00
30421;BME280;17218;54.070;10.012;2023-05-02T07:22:49;101842.81;;;10.08;100.00
30421;BME280;17218;54.070;10.012;2023-05-02T07:25:16;101848.91;;;10.13;100.00
30421;BME280;17218;54.070;10.012;2023-05-02T07:27:43;101840.50;;;10.32;100.00
30421;BME280;17218;54.070;10.012;2023-05-02T07:30:10;101842.38;;;10.45;100.00
30421;BME280;17218;54.070;10.012;2023-05-02T07:32:37;101841.44;;;10.37;100.00
30421;BME280;17218;54.070;10.012;2023-05-02T07:35:04;101857.16;;;10.53;100.00
30421;BME280;17218;54.070;10.012;2023-05-02T07:37:32;101859.84;;;10.64;99.74
30421;BME280;17218;54.070;10.012;2023-05-02T07:40:00;101859.75;;;10.54;100.00
30421;BME280;17218;54.070;10.012;2023-05-02T07:42:30;101861.69;;;10.72;100.00
30421;BME280;17218;54.070;10.012;2023-05-02T07:44:57;101866.91;;;10.77;97.00
30421;BME280;17218;54.070;10.012;2023-05-02T07:47:24;101864.25;;;10.69;95.56
30421;BME280;17218;54.070;10.012;2023-05-02T07:49:51;101871.16;;;10.69;97.10
30421;BME280;17218;54.070;10.012;2023-05-02T07:52:17;101870.31;;;10.73;92.65
30421;BME280;17218;54.070;10.012;2023-05-02T07:54:44;101870.50;;;10.92;94.68
30421;BME280;17218;54.070;10.012;2023-05-02T07:57:12;101878.47;;;11.14;95.17
30421;BME280;17218;54.070;10.012;2023-05-02T07:59:38;101871.81;;;11.42;93.87
30421;BME280;17218;54.070;10.012;2023-05-02T08:02:05;101867.66;;;11.68;91.21
30421;BME280;17218;54.070;10.012;2023-05-02T08:04:32;101873.84;;;11.89;93.17
30421;BME280;17218;54.070;10.012;2023-05-02T08:06:58;101879.06;;;12.00;88.68
30421;BME280;17218;54.070;10.012;2023-05-02T08:09:25;101879.16;;;12.15;87.94
30421;BME280;17218;54.070;10.012;2023-05-02T08:11:52;101890.34;;;12.07;83.55
30421;BME280;17218;54.070;10.012;2023-05-02T08:14:19;101886.03;;;12.07;82.87
30421;BME280;17218;54.070;10.012;2023-05-02T08:16:46;101885.19;;;12.10;83.27
30421;BME280;17218;54.070;10.012;2023-05-02T08:19:13;101889.47;;;12.01;81.94
30421;BME280;17218;54.070;10.012;2023-05-02T08:21:40;101898.13;;;12.03;87.64
30421;BME280;17218;54.070;10.012;2023-05-02T08:24:07;101896.44;;;12.09;81.91
30421;BME280;17218;54.070;10.012;2023-05-02T08:26:33;101894.78;;;12.20;81.13
30421;BME280;17218;54.070;10.012;2023-05-02T08:29:00;101908.53;;;12.05;81.49
30421;BME280;17218;54.070;10.012;2023-05-02T08:31:29;101912.78;;;11.95;80.90
30421;BME280;17218;54.070;10.012;2023-05-02T08:33:56;101909.38;;;12.02;82.31
30421;BME280;17218;54.070;10.012;2023-05-02T08:36:23;101917.25;;;12.10;80.53
30421;BME280;17218;54.070;10.012;2023-05-02T08:38:49;101915.59;;;12.28;82.86
30421;BME280;17218;54.070;10.012;2023-05-02T08:41:17;101915.66;;;12.42;83.82
30421;BME280;17218;54.070;10.012;2023-05-02T08:43:45;101916.56;;;12.57;83.16
30421;BME280;17218;54.070;10.012;2023-05-02T08:46:13;101917.47;;;12.73;79.80
30421;BME280;17218;54.070;10.012;2023-05-02T08:48:43;101926.16;;;12.75;78.16
30421;BME280;17218;54.070;10.012;2023-05-02T08:51:13;101934.81;;;12.79;77.90
30421;BME280;17218;54.070;10.012;2023-05-02T08:53:40;101924.47;;;12.94;80.14
30421;BME280;17218;54.070;10.012;2023-05-02T08:56:08;101927.09;;;13.05;77.91
30421;BME280;17218;54.070;10.012;2023-05-02T08:58:35;101939.22;;;13.14;77.51
30421;BME280;17218;54.070;10.012;2023-05-02T09:01:08;101943.56;;;12.99;77.57
30421;BME280;17218;54.070;10.012;2023-05-02T09:03:36;101938.38;;;13.18;76.97
30421;BME280;17218;54.070;10.012;2023-05-02T09:06:08;101947.91;;;13.05;76.90
30421;BME280;17218;54.070;10.012;2023-05-02T09:08:35;101938.38;;;13.09;74.07
30421;BME280;17218;54.070;10.012;2023-05-02T09:11:02;101952.25;;;13.22;75.28
30421;BME280;17218;54.070;10.012;2023-05-02T09:13:31;101956.56;;;13.24;77.89
30421;BME280;17218;54.070;10.012;2023-05-02T09:15:59;101953.13;;;13.30;78.92
30421;BME280;17218;54.070;10.012;2023-05-02T09:18:27;101954.84;;;13.38;78.86
30421;BME280;17218;54.070;10.012;2023-05-02T09:20:55;101968.72;;;13.18;76.80
30421;BME280;17218;54.070;10.012;2023-05-02T09:23:33;101962.63;;;13.09;77.75
30421;BME280;17218;54.070;10.012;2023-05-02T09:25:59;101973.03;;;13.03;79.39
30421;BME280;17218;54.070;10.012;2023-05-02T09:28:37;101968.59;;;12.63;81.76
30421;BME280;17218;54.070;10.012;2023-05-02T09:31:06;101978.03;;;12.47;89.55
30421;BME280;17218;54.070;10.012;2023-05-02T09:33:32;101984.09;;;12.44;88.78
30421;BME280;17218;54.070;10.012;2023-05-02T09:35:59;101990.13;;;12.42;89.17
30421;BME280;17218;54.070;10.012;2023-05-02T09:38:25;101990.06;;;12.27;94.04
30421;BME280;17218;54.070;10.012;2023-05-02T09:40:53;101991.78;;;12.25;96.24
30421;BME280;17218;54.070;10.012;2023-05-02T09:43:21;101989.91;;;12.07;100.00
30421;BME280;17218;54.070;10.012;2023-05-02T09:45:55;101997.66;;;11.98;95.83
30421;BME280;17218;54.070;10.012;2023-05-02T09:48:23;101995.78;;;11.81;96.34
30421;BME280;17218;54.070;10.012;2023-05-02T09:50:49;102001.09;;;11.97;89.81
30421;BME280;17218;54.070;10.012;2023-05-02T09:53:16;101999.31;;;11.91;83.79
30421;BME280;17218;54.070;10.012;2023-05-02T09:55:42;102002.03;;;12.03;80.31
30421;BME280;17218;54.070;10.012;2023-05-02T09:58:20;102005.66;;;12.27;83.91
30421;BME280;17218;54.070;10.012;2023-05-02T10:00:48;102020.53;;;12.58;82.70
30421;BME280;17218;54.070;10.012;2023-05-02T10:03:16;102024.13;;;12.84;79.88
30421;BME280;17218;54.070;10.012;2023-05-02T10:05:43;102015.44;;;12.82;79.51
30421;BME280;17218;54.070;10.012;2023-05-02T10:08:10;102027.50;;;12.62;79.15
30421;BME280;17218;54.070;10.012;2023-05-02T10:10:39;102028.47;;;12.85;81.36
30421;BME280;17218;54.070;10.012;2023-05-02T10:13:07;102026.81;;;13.14;72.07
30421;BME280;17218;54.070;10.012;2023-05-02T10:15:41;102028.59;;;13.40;75.32
30421;BME280;17218;54.070;10.012;2023-05-02T10:18:11;102018.25;;;13.76;70.92
30421;BME280;17218;54.070;10.012;2023-05-02T10:20:42;102020.00;;;13.83;70.09
30421;BME280;17218;54.070;10.012;2023-05-02T10:23:11;102020.00;;;13.92;69.54
30421;BME280;17218;54.070;10.012;2023-05-02T10:25:38;102026.91;;;13.97;70.44
30421;BME280;17218;54.070;10.012;2023-05-02T10:28:05;102029.53;;;13.86;69.94
30421;BME280;17218;54.070;10.012;2023-05-02T10:30:32;102032.94;;;13.48;73.00
30421;BME280;17218;54.070;10.012;2023-05-02T10:33:02;102037.25;;;13.26;73.67
30421;BME280;17218;54.070;10.012;2023-05-02T10:35:29;102044.19;;;13.27;74.23
30421;BME280;17218;54.070;10.012;2023-05-02T10:37:57;102043.34;;;13.39;70.79
30421;BME280;17218;54.070;10.012;2023-05-02T10:40:24;102037.34;;;13.84;69.60
30421;BME280;17218;54.070;10.012;2023-05-02T10:42:51;102045.13;;;14.31;65.89
30421;BME280;17218;54.070;10.012;2023-05-02T10:45:32;102058.09;;;14.47;62.03
30421;BME280;17218;54.070;10.012;2023-05-02T10:48:13;102043.31;;;14.42;61.09
30421;BME280;17218;54.070;10.012;2023-05-02T10:50:48;102058.16;;;13.87;64.48
30421;BME280;17218;54.070;10.012;2023-05-02T10:53:23;102054.69;;;13.68;67.80
30421;BME280;17218;54.070;10.012;2023-05-02T10:56:14;102055.56;;;13.76;67.67
30421;BME280;17218;54.070;10.012;2023-05-02T10:58:41;102062.53;;;13.66;65.26
30421;BME280;17218;54.070;10.012;2023-05-02T11:01:36;102063.38;;;13.67;67.64
30421;BME280;17218;54.070;10.012;2023-05-02T11:04:07;102064.25;;;13.89;69.39
30421;BME280;17218;54.070;10.012;2023-05-02T11:06:35;102063.34;;;14.37;63.48
30421;BME280;17218;54.070;10.012;2023-05-02T11:09:32;102060.63;;;14.73;58.22
30421;BME280;17218;54.070;10.012;2023-05-02T11:11:59;102048.38;;;14.99;61.35
30421;BME280;17218;54.070;10.012;2023-05-02T11:14:44;102054.09;;;15.59;54.14
30421;BME280;17218;54.070;10.012;2023-05-02T11:17:12;102053.03;;;15.85;57.31
30421;BME280;17218;54.070;10.012;2023-05-02T11:22:51;102039.63;;;16.24;51.11
30421;BME280;17218;54.070;10.012;2023-05-02T11:25:31;102037.91;;;16.20;51.11
30421;BME280;17218;54.070;10.012;2023-05-02T11:27:58;102057.03;;;16.27;50.14
30421;BME280;17218;54.070;10.012;2023-05-02T11:30:39;102056.06;;;16.36;48.93
30421;BME280;17218;54.070;10.012;2023-05-02T11:33:16;102054.44;;;16.27;48.49
30421;BME280;17218;54.070;10.012;2023-05-02T11:35:45;102053.50;;;16.32;50.45
30421;BME280;17218;54.070;10.012;2023-05-02T11:38:16;102054.50;;;16.96;48.88
30421;BME280;17218;54.070;10.012;2023-05-02T11:40:50;102068.84;;;16.65;47.14
30421;BME280;17218;54.070;10.012;2023-05-02T11:43:18;102064.38;;;15.82;49.35
30421;BME280;17218;54.070;10.012;2023-05-02T11:45:45;102075.88;;;15.62;49.89
30421;BME280;17218;54.070;10.012;2023-05-02T11:48:15;102076.03;;;15.36;53.00
30421;BME280;17218;54.070;10.012;2023-05-02T11:50:43;102075.16;;;15.35;53.01
30421;BME280;17218;54.070;10.012;2023-05-02T11:53:10;102083.66;;;15.67;52.76
30421;BME280;17218;54.070;10.012;2023-05-02T11:55:43;102092.97;;;16.04;53.26
30421;BME280;17218;54.070;10.012;2023-05-02T11:58:12;102090.09;;;16.34;52.80
30421;BME280;17218;54.070;10.012;2023-05-02T12:00:39;102085.50;;;16.56;51.44
30421;BME280;17218;54.070;10.012;2023-05-02T12:03:05;102087.28;;;16.50;52.06
30421;BME280;17218;54.070;10.012;2023-05-02T12:05:32;102101.31;;;16.44;53.81
30421;BME280;17218;54.070;10.012;2023-05-02T12:07:58;102107.91;;;15.82;54.40
30421;BME280;17218;54.070;10.012;2023-05-02T12:10:35;102113.44;;;15.38;54.75
30421;BME280;17218;54.070;10.012;2023-05-02T12:13:04;102116.13;;;15.14;55.39
30421;BME280;17218;54.070;10.012;2023-05-02T12:15:31;102123.19;;;15.03;55.21
30421;BME280;17218;54.070;10.012;2023-05-02T12:17:58;102121.50;;;14.71;54.43
30421;BME280;17218;54.070;10.012;2023-05-02T12:20:26;102125.03;;;14.34;58.25
30421;BME280;17218;54.070;10.012;2023-05-02T12:22:52;102118.03;;;14.62;59.42
30421;BME280;17218;54.070;10.012;2023-05-02T12:25:19;102125.00;;;14.55;58.60
30421;BME280;17218;54.070;10.012;2023-05-02T12:27:58;102132.75;;;14.95;61.97
30421;BME280;17218;54.070;10.012;2023-05-02T12:30:26;102133.16;;;17.56;57.10
30421;BME280;17218;54.070;10.012;2023-05-02T12:32:56;102127.75;;;18.70;46.37
30421;BME280;17218;54.070;10.012;2023-05-02T12:35:23;102125.66;;;18.89;43.69
30421;BME280;17218;54.070;10.012;2023-05-02T12:37:51;102134.28;;;18.48;45.55
30421;BME280;17218;54.070;10.012;2023-05-02T12:40:17;102136.47;;;17.66;44.64
30421;BME280;17218;54.070;10.012;2023-05-02T12:42:57;102142.59;;;16.97;46.05
30421;BME280;17218;54.070;10.012;2023-05-02T12:45:25;102145.50;;;16.71;48.00
30421;BME280;17218;54.070;10.012;2023-05-02T12:47:55;102151.63;;;16.69;48.16